^^
Grace C. Lehan Memorial Weather Station Historical Data
Daily Summary for June 30, 2021 Units:  Both    English   Metric
Daily Weekly Monthly Yearly
  High: Low: Average:
Temperature: 62.8 °F /  17.1 °C 50.9 °F /  10.5 °C 54.8 °F /  12.7 °C
Dew Point: 51.8 °F /  11 °C 48.1 °F /  8.9 °C 49.8 °F /  9.9 °C
Humidity: 90% 67.2% 83%
Wind Speed: 3.9mph /  6.3km/h - 0.3mph /  0.5km/h
Wind Gust: 13mph /  20.9km/h - -
Wind- - WNW
Pressure: 30.05 in /  1017.5 hPa 29.97 in /  1014.8 hPa -
Precipitation: 0.00 in /  0 mm    
 
 
Tabular Data for June 30, 2021
Time Temperature Dew Point Pressure Wind Wind Speed Wind Gust Humidity Rainfall Rate (Hourly) solar
00:04 54.9 °F /  12.7 °C 49.8 °F /  9.9 °C 29.98in /  1015.1hPa Calm     83% 0.00in /  0mm 0 W/m2
00:09 54.9 °F /  12.7 °C 49.8 °F /  9.9 °C 29.98in /  1015.1hPa Calm     83% 0.00in /  0mm 0 W/m2
00:14 54.9 °F /  12.7 °C 49.8 °F /  9.9 °C 29.98in /  1015.1hPa Calm     83% 0.00in /  0mm 0 W/m2
00:19 54.9 °F /  12.7 °C 49.9 °F /  9.9 °C 29.98in /  1015.1hPa Calm     83% 0.00in /  0mm 0 W/m2
00:24 55 °F /  12.8 °C 49.9 °F /  9.9 °C 29.98in /  1015.1hPa Calm     83% 0.00in /  0mm 0 W/m2
00:29 55 °F /  12.8 °C 50.1 °F /  10.1 °C 29.97in /  1014.8hPa Calm     83.5% 0.00in /  0mm 0 W/m2
00:34 55.1 °F /  12.8 °C 50.4 °F /  10.2 °C 29.97in /  1014.8hPa Calm     84% 0.00in /  0mm 0 W/m2
00:39 55.1 °F /  12.8 °C 50.4 °F /  10.2 °C 29.97in /  1014.8hPa Calm     84% 0.00in /  0mm 0 W/m2
00:44 55.2 °F /  12.9 °C 50.5 °F /  10.3 °C 29.97in /  1014.8hPa Calm     84% 0.00in /  0mm 0 W/m2
00:49 55.2 °F /  12.9 °C 50.5 °F /  10.3 °C 29.97in /  1014.8hPa Calm     84% 0.00in /  0mm 0 W/m2
00:54 55.3 °F /  12.9 °C 50.6 °F /  10.3 °C 29.97in /  1014.8hPa Calm     84% 0.00in /  0mm 0 W/m2
00:59 55.4 °F /  13 °C 50.6 °F /  10.3 °C 29.97in /  1014.8hPa Calm     84% 0.00in /  0mm 0 W/m2
01:04 55.4 °F /  13 °C 50.7 °F /  10.4 °C 29.97in /  1014.8hPa Calm     84% 0.00in /  0mm 0 W/m2
01:09 55.5 °F /  13.1 °C 50.5 °F /  10.3 °C 29.97in /  1014.8hPa Calm     83.4% 0.00in /  0mm 0 W/m2
01:14 55.6 °F /  13.1 °C 50.5 °F /  10.3 °C 29.97in /  1014.8hPa Calm     83.2% 0.00in /  0mm 0 W/m2
01:19 55.6 °F /  13.1 °C 50.5 °F /  10.3 °C 29.97in /  1014.8hPa Calm     83% 0.00in /  0mm 0 W/m2
01:24 55.6 °F /  13.1 °C 50.4 °F /  10.2 °C 29.97in /  1014.8hPa Calm     82.5% 0.00in /  0mm 0 W/m2
01:29 55.6 °F /  13.1 °C 50.4 °F /  10.2 °C 29.97in /  1014.8hPa Calm     82.5% 0.00in /  0mm 0 W/m2
01:34 55.6 °F /  13.1 °C 50.5 °F /  10.3 °C 29.97in /  1014.8hPa Calm     82.7% 0.00in /  0mm 0 W/m2
01:39 55.7 °F /  13.2 °C 50.4 °F /  10.2 °C 29.97in /  1014.8hPa Calm     82.5% 0.00in /  0mm 0 W/m2
01:44 55.7 °F /  13.2 °C 50.6 °F /  10.3 °C 29.98in /  1015.1hPa Calm     83% 0.00in /  0mm 0 W/m2
01:49 55.8 °F /  13.2 °C 50.7 °F /  10.4 °C 29.98in /  1015.1hPa Calm     83% 0.00in /  0mm 0 W/m2
01:54 55.8 °F /  13.2 °C 50.5 °F /  10.3 °C 29.98in /  1015.1hPa Calm     82.5% 0.00in /  0mm 0 W/m2
01:59 55.8 °F /  13.2 °C 50.6 °F /  10.3 °C 29.98in /  1015.1hPa Calm     82.6% 0.00in /  0mm 0 W/m2
02:04 55.8 °F /  13.2 °C 50.7 °F /  10.4 °C 29.98in /  1015.1hPa Calm     83% 0.00in /  0mm 0 W/m2
02:09 55.8 °F /  13.2 °C 50.7 °F /  10.4 °C 29.98in /  1015.1hPa Calm     83% 0.00in /  0mm 0 W/m2
02:14 55.8 °F /  13.2 °C 50.7 °F /  10.4 °C 29.98in /  1015.1hPa Calm     82.8% 0.00in /  0mm 0 W/m2
02:19 55.8 °F /  13.2 °C 50.4 °F /  10.2 °C 29.98in /  1015.1hPa Calm     82% 0.00in /  0mm 0 W/m2
02:24 55.8 °F /  13.2 °C 50.1 °F /  10.1 °C 29.98in /  1015.1hPa Calm     81% 0.00in /  0mm 0 W/m2
02:29 55.8 °F /  13.2 °C 50.1 °F /  10.1 °C 29.98in /  1015.1hPa Calm     81.1% 0.00in /  0mm 0 W/m2
02:34 55.9 °F /  13.3 °C 50.5 °F /  10.3 °C 29.98in /  1015.1hPa Calm     82% 0.00in /  0mm 0 W/m2
02:39 55.9 °F /  13.3 °C 50.5 °F /  10.3 °C 29.98in /  1015.1hPa Calm     82% 0.00in /  0mm 0 W/m2
02:44 55.9 °F /  13.3 °C 50.5 °F /  10.3 °C 29.98in /  1015.1hPa Calm     82% 0.00in /  0mm 0 W/m2
02:49 55.9 °F /  13.3 °C 50.5 °F /  10.3 °C 29.98in /  1015.1hPa Calm     82% 0.00in /  0mm 0 W/m2
02:54 55.9 °F /  13.3 °C 50.6 °F /  10.3 °C 29.98in /  1015.1hPa Calm     82.5% 0.00in /  0mm 0 W/m2
02:59 55.9 °F /  13.3 °C 50.8 °F /  10.4 °C 29.98in /  1015.1hPa Calm     83% 0.00in /  0mm 0 W/m2
03:04 55.9 °F /  13.3 °C 50.8 °F /  10.4 °C 29.98in /  1015.1hPa Calm     83% 0.00in /  0mm 0 W/m2
03:09 55.8 °F /  13.2 °C 50.7 °F /  10.4 °C 29.98in /  1015.1hPa Calm   1mph /  1.6km/h 83% 0.00in /  0mm 0 W/m2
03:14 55.8 °F /  13.2 °C 50.7 °F /  10.4 °C 29.98in /  1015.1hPa NW 0.1mph /  0.2km/h 2mph /  3.2km/h 83% 0.00in /  0mm 0 W/m2
03:19 55.8 °F /  13.2 °C 50.7 °F /  10.4 °C 29.98in /  1015.1hPa Calm   2mph /  3.2km/h 83% 0.00in /  0mm 0 W/m2
03:24 55.7 °F /  13.2 °C 50.7 °F /  10.4 °C 29.98in /  1015.1hPa Calm   2mph /  3.2km/h 83% 0.00in /  0mm 0 W/m2
03:29 55.7 °F /  13.2 °C 50.6 °F /  10.3 °C 29.97in /  1014.8hPa Calm   2mph /  3.2km/h 83% 0.00in /  0mm 0 W/m2
03:34 55.7 °F /  13.2 °C 50.6 °F /  10.3 °C 29.98in /  1015.1hPa Calm   2mph /  3.2km/h 83% 0.00in /  0mm 0 W/m2
03:39 55.7 °F /  13.2 °C 50.6 °F /  10.3 °C 29.98in /  1015.1hPa Calm     83% 0.00in /  0mm 0 W/m2
03:44 55.7 °F /  13.2 °C 50.7 °F /  10.4 °C 29.98in /  1015.1hPa Calm     83.5% 0.00in /  0mm 0 W/m2
03:49 55.6 °F /  13.1 °C 50.9 °F /  10.5 °C 29.98in /  1015.1hPa Calm     84% 0.00in /  0mm 0 W/m2
03:54 55.6 °F /  13.1 °C 50.8 °F /  10.4 °C 29.98in /  1015.1hPa Calm     84% 0.00in /  0mm 0 W/m2
03:59 55.5 °F /  13.1 °C 50.8 °F /  10.4 °C 29.98in /  1015.1hPa Calm     84% 0.00in /  0mm 0 W/m2
04:00 55.5 °F /  13.1 °C 50.8 °F /  10.4 °C 29.98in /  1015.1hPa Calm     84% 0.00in /  0mm 0 W/m2
04:09 55.4 °F /  13 °C 50.6 °F /  10.3 °C 29.99in /  1015.5hPa Calm     84% 0.00in /  0mm 0 W/m2
04:14 55.3 °F /  12.9 °C 50.5 °F /  10.3 °C 29.99in /  1015.5hPa Calm     84% 0.00in /  0mm 0 W/m2
04:19 55.2 °F /  12.9 °C 50.4 °F /  10.2 °C 29.99in /  1015.5hPa Calm     84% 0.00in /  0mm 0 W/m2
04:24 55.1 °F /  12.8 °C 50.3 °F /  10.2 °C 29.99in /  1015.5hPa NW 0.1mph /  0.2km/h 4mph /  6.4km/h 84% 0.00in /  0mm 0 W/m2
04:29 55 °F /  12.8 °C 50.2 °F /  10.1 °C 29.99in /  1015.5hPa NW 0.3mph /  0.5km/h 4mph /  6.4km/h 84% 0.00in /  0mm 0 W/m2
04:34 54.9 °F /  12.7 °C 50.2 °F /  10.1 °C 29.99in /  1015.5hPa NW 0.3mph /  0.5km/h 4mph /  6.4km/h 84.2% 0.00in /  0mm 0 W/m2
04:39 54.9 °F /  12.7 °C 50.4 °F /  10.2 °C 29.99in /  1015.5hPa Calm   4mph /  6.4km/h 85% 0.00in /  0mm 0 W/m2
04:44 54.8 °F /  12.7 °C 50.4 °F /  10.2 °C 29.99in /  1015.5hPa Calm   4mph /  6.4km/h 85% 0.00in /  0mm 0 W/m2
04:49 54.8 °F /  12.7 °C 50.3 °F /  10.2 °C 30.00in /  1015.8hPa Calm   4mph /  6.4km/h 85% 0.00in /  0mm 0 W/m2
04:54 54.7 °F /  12.6 °C 50.2 °F /  10.1 °C 30.00in /  1015.8hPa Calm   4mph /  6.4km/h 84.8% 0.00in /  0mm 0 W/m2
04:59 54.6 °F /  12.6 °C 50.2 °F /  10.1 °C 30.00in /  1015.8hPa Calm   4mph /  6.4km/h 85% 0.00in /  0mm 0 W/m2
05:04 54.4 °F /  12.4 °C 50 °F /  10 °C 30.00in /  1015.8hPa Calm   4mph /  6.4km/h 85% 0.00in /  0mm 0 W/m2
05:09 54.2 °F /  12.3 °C 49.8 °F /  9.9 °C 30.00in /  1015.8hPa Calm     85% 0.00in /  0mm 0 W/m2
05:14 54.1 °F /  12.3 °C 49.8 °F /  9.9 °C 30.00in /  1015.8hPa Calm     85.3% 0.00in /  0mm 0 W/m2
05:19 54 °F /  12.2 °C 49.9 °F /  9.9 °C 30.00in /  1015.8hPa Calm     86% 0.00in /  0mm 0 W/m2
05:24 53.9 °F /  12.2 °C 49.8 °F /  9.9 °C 30.00in /  1015.8hPa Calm     86% 0.00in /  0mm 0 W/m2
05:29 53.7 °F /  12.1 °C 49.7 °F /  9.8 °C 30.00in /  1015.8hPa Calm   1mph /  1.6km/h 86.1% 0.00in /  0mm 0 W/m2
05:34 53.6 °F /  12 °C 49.9 °F /  9.9 °C 30.00in /  1015.8hPa Calm   1mph /  1.6km/h 87% 0.00in /  0mm 0 W/m2
05:39 53.5 °F /  11.9 °C 49.7 °F /  9.8 °C 30.00in /  1015.8hPa Calm     87% 0.00in /  0mm 0 W/m2
05:44 53.3 °F /  11.8 °C 49.6 °F /  9.8 °C 30.00in /  1015.8hPa Calm     87% 0.00in /  0mm 0 W/m2
05:49 53.2 °F /  11.8 °C 49.4 °F /  9.7 °C 30.00in /  1015.8hPa Calm     87% 0.00in /  0mm 0 W/m2
05:54 53 °F /  11.7 °C 49.3 °F /  9.6 °C 30.01in /  1016.1hPa Calm     87% 0.00in /  0mm 0 W/m2
05:59 52.9 °F /  11.6 °C 49.4 °F /  9.7 °C 30.01in /  1016.1hPa Calm     87.9% 0.00in /  0mm 0 W/m2
06:04 52.8 °F /  11.6 °C 49.3 °F /  9.6 °C 30.01in /  1016.1hPa Calm     87.8% 0.00in /  0mm 0 W/m2
06:08 52.7 °F /  11.5 °C 49.2 °F /  9.6 °C 30.01in /  1016.1hPa Calm     88% 0.00in /  0mm 0 W/m2
06:14 52.5 °F /  11.4 °C 49 °F /  9.4 °C 30.01in /  1016.1hPa Calm     88% 0.00in /  0mm 0 W/m2
06:19 52.3 °F /  11.3 °C 48.9 °F /  9.4 °C 30.01in /  1016.1hPa Calm     88% 0.00in /  0mm 0 W/m2
06:24 52.2 °F /  11.2 °C 48.8 °F /  9.3 °C 30.02in /  1016.5hPa Calm     88% 0.00in /  0mm 0 W/m2
06:29 52.1 °F /  11.2 °C 48.9 °F /  9.4 °C 30.02in /  1016.5hPa Calm     88.8% 0.00in /  0mm 0 W/m2
06:34 51.9 °F /  11.1 °C 48.7 °F /  9.3 °C 30.02in /  1016.5hPa Calm     89% 0.00in /  0mm 0 W/m2
06:39 51.7 °F /  10.9 °C 48.6 °F /  9.2 °C 30.02in /  1016.5hPa Calm     89% 0.00in /  0mm 0 W/m2
06:44 51.6 °F /  10.9 °C 48.7 °F /  9.3 °C 30.02in /  1016.5hPa Calm     89.7% 0.00in /  0mm 0 W/m2
06:49 51.4 °F /  10.8 °C 48.6 °F /  9.2 °C 30.02in /  1016.5hPa Calm     90% 0.00in /  0mm 0 W/m2
06:54 51.3 °F /  10.7 °C 48.5 °F /  9.2 °C 30.02in /  1016.5hPa Calm     90% 0.00in /  0mm 0 W/m2
06:59 51.2 °F /  10.7 °C 48.3 °F /  9.1 °C 30.02in /  1016.5hPa Calm     90% 0.00in /  0mm 5 W/m2
07:04 51 °F /  10.6 °C 48.2 °F /  9 °C 30.02in /  1016.5hPa Calm     90% 0.00in /  0mm 7 W/m2
07:09 51 °F /  10.6 °C 48.1 °F /  8.9 °C 30.03in /  1016.8hPa Calm     90% 0.00in /  0mm 9 W/m2
07:14 50.9 °F /  10.5 °C 48.1 °F /  8.9 °C 30.03in /  1016.8hPa Calm     90% 0.00in /  0mm 12 W/m2
07:19 50.9 °F /  10.5 °C 48.1 °F /  8.9 °C 30.03in /  1016.8hPa Calm     90% 0.00in /  0mm 12 W/m2
07:24 50.9 °F /  10.5 °C 48.1 °F /  8.9 °C 30.04in /  1017.2hPa NW 0.2mph /  0.3km/h 4mph /  6.4km/h 90% 0.00in /  0mm 14 W/m2
07:29 50.9 °F /  10.5 °C 48.1 °F /  8.9 °C 30.03in /  1016.8hPa Calm   4mph /  6.4km/h 90% 0.00in /  0mm 14 W/m2
07:34 50.9 °F /  10.5 °C 48.1 °F /  8.9 °C 30.04in /  1017.2hPa Calm   4mph /  6.4km/h 90% 0.00in /  0mm 16 W/m2
07:39 51 °F /  10.6 °C 48.2 °F /  9 °C 30.04in /  1017.2hPa Calm     90% 0.00in /  0mm 23 W/m2
07:44 51.1 °F /  10.6 °C 48.3 °F /  9.1 °C 30.04in /  1017.2hPa Calm   2mph /  3.2km/h 90% 0.00in /  0mm 19 W/m2
07:49 51.3 °F /  10.7 °C 48.3 °F /  9.1 °C 30.04in /  1017.2hPa Calm   2mph /  3.2km/h 89.4% 0.00in /  0mm 18 W/m2
07:54 51.4 °F /  10.8 °C 48.3 °F /  9.1 °C 30.04in /  1017.2hPa NW 0.1mph /  0.2km/h 2mph /  3.2km/h 89% 0.00in /  0mm 21 W/m2
07:59 51.7 °F /  10.9 °C 48.3 °F /  9.1 °C 30.03in /  1016.8hPa NW 0.1mph /  0.2km/h 3mph /  4.8km/h 88.3% 0.00in /  0mm 28 W/m2
08:09 52.4 °F /  11.3 °C 48.3 °F /  9.1 °C 30.03in /  1016.8hPa NW 0.1mph /  0.2km/h 1mph /  1.6km/h 86% 0.00in /  0mm 21 W/m2
08:14 52.6 °F /  11.4 °C 48.2 °F /  9 °C 30.04in /  1017.2hPa NW 1.5mph /  2.4km/h 9mph /  14.5km/h 85% 0.00in /  0mm 33 W/m2
08:19 53 °F /  11.7 °C 48.2 °F /  9 °C 30.04in /  1017.2hPa NW 1.8mph /  2.9km/h 9mph /  14.5km/h 83.6% 0.00in /  0mm 39 W/m2
08:24 53.4 °F /  11.9 °C 48.2 °F /  9 °C 30.04in /  1017.2hPa NNW 0.7mph /  1.1km/h 9mph /  14.5km/h 82.3% 0.00in /  0mm 39 W/m2
08:29 53.8 °F /  12.1 °C 48.1 °F /  8.9 °C 30.04in /  1017.2hPa North 1.9mph /  3.1km/h 9mph /  14.5km/h 81.1% 0.00in /  0mm 26 W/m2
08:34 54 °F /  12.2 °C 48.2 °F /  9 °C 30.05in /  1017.5hPa NW 1.1mph /  1.8km/h 9mph /  14.5km/h 80.5% 0.00in /  0mm 37 W/m2
08:39 54.3 °F /  12.4 °C 48.2 °F /  9 °C 30.05in /  1017.5hPa NW 2.7mph /  4.3km/h 10mph /  16.1km/h 79.7% 0.00in /  0mm 72 W/m2
08:44 54.6 °F /  12.6 °C 48.1 °F /  8.9 °C 30.04in /  1017.2hPa North 0.4mph /  0.6km/h 10mph /  16.1km/h 78.9% 0.00in /  0mm 83 W/m2
08:49 54.8 °F /  12.7 °C 48.1 °F /  8.9 °C 30.04in /  1017.2hPa NW 2.1mph /  3.4km/h 10mph /  16.1km/h 78.2% 0.00in /  0mm 46 W/m2
08:54 55 °F /  12.8 °C 48.3 °F /  9.1 °C 30.04in /  1017.2hPa West 1.2mph /  1.9km/h 10mph /  16.1km/h 78% 0.00in /  0mm 56 W/m2
08:59 55.3 °F /  12.9 °C 48.6 °F /  9.2 °C 30.05in /  1017.5hPa NW 3.9mph /  6.3km/h 10mph /  16.1km/h 78% 0.00in /  0mm 69 W/m2
09:04 55.7 °F /  13.2 °C 48.8 °F /  9.3 °C 30.05in /  1017.5hPa WNW 2.6mph /  4.2km/h 10mph /  16.1km/h 77.7% 0.00in /  0mm 313 W/m2
09:09 56.1 °F /  13.4 °C 49.1 °F /  9.5 °C 30.05in /  1017.5hPa NW 3.7mph /  6km/h 11mph /  17.7km/h 77.2% 0.00in /  0mm 425 W/m2
09:14 56.9 °F /  13.8 °C 49.6 °F /  9.8 °C 30.05in /  1017.5hPa WNW 1.3mph /  2.1km/h 11mph /  17.7km/h 76.4% 0.00in /  0mm 446 W/m2
09:19 57.9 °F /  14.4 °C 50 °F /  10 °C 30.05in /  1017.5hPa WNW 3.9mph /  6.3km/h 13mph /  20.9km/h 74.7% 0.00in /  0mm 480 W/m2
09:24 58.8 °F /  14.9 °C 50.4 °F /  10.2 °C 30.05in /  1017.5hPa NW 1.9mph /  3.1km/h 13mph /  20.9km/h 73.6% 0.00in /  0mm 541 W/m2
09:29 59.7 °F /  15.4 °C 51 °F /  10.6 °C 30.05in /  1017.5hPa NNW 1.3mph /  2.1km/h 13mph /  20.9km/h 72.9% 0.00in /  0mm 559 W/m2
09:34 60.4 °F /  15.8 °C 51.2 °F /  10.7 °C 30.05in /  1017.5hPa NNW 0.1mph /  0.2km/h 13mph /  20.9km/h 71.6% 0.00in /  0mm 582 W/m2
09:39 61 °F /  16.1 °C 51.4 °F /  10.8 °C 30.05in /  1017.5hPa WNW 1.8mph /  2.9km/h 6mph /  9.7km/h 70.4% 0.00in /  0mm 612 W/m2
09:44 61.5 °F /  16.4 °C 51.1 °F /  10.6 °C 30.05in /  1017.5hPa WNW 0.5mph /  0.8km/h 6mph /  9.7km/h 68.5% 0.00in /  0mm 624 W/m2
09:49 61.7 °F /  16.5 °C 51.1 °F /  10.6 °C 30.05in /  1017.5hPa NW 0.6mph /  1km/h 6mph /  9.7km/h 68% 0.00in /  0mm 624 W/m2
09:54 61.8 °F /  16.6 °C 51 °F /  10.6 °C 30.05in /  1017.5hPa NW 0.9mph /  1.4km/h 6mph /  9.7km/h 67.5% 0.00in /  0mm 650 W/m2
09:59 62.3 °F /  16.8 °C 51.6 °F /  10.9 °C 30.05in /  1017.5hPa Calm   6mph /  9.7km/h 68.1% 0.00in /  0mm 652 W/m2
10:03 62.8 °F /  17.1 °C 51.8 °F /  11 °C 30.05in /  1017.5hPa NW 0.4mph /  0.6km/h 6mph /  9.7km/h 67.2% 0.00in /  0mm 652 W/m2
Hartford County Weather
Compliments of Weather Underground - 2 mb